Time;durP1;ratioP1;P1;durP2;ratioP2;P2;SDS_P1;SDS_P2;PMS_P1;PMS_P2;Temp;Humidity;BMP_temperature;BMP_pressure;BME280_temperature;BME280_humidity;BME280_pressure;Samples;Min_cycle;Max_cycle;Signal;HPM_P1;HPM_P2
2021/01/09 00:00:26;;;;;;;15.98;10.05;;;;;;;1.07;91.04;100967.28;5022102;28;20054;-72
2021/01/09 00:02:53;;;;;;;15.82;10.20;;;;;;;1.09;90.48;100970.75;5021480;28;20053;-71
2021/01/09 00:05:20;;;;;;;15.23;10.55;;;;;;;1.13;90.86;100967.22;5024801;28;20049;-70
2021/01/09 00:07:47;;;;;;;13.27;8.70;;;;;;;1.37;89.23;100958.22;5035257;28;20049;-70
2021/01/09 00:10:13;;;;;;;17.92;10.68;;;;;;;0.90;90.25;100964.97;5021968;28;20041;-71
2021/01/09 00:12:40;;;;;;;15.32;9.90;;;;;;;0.95;90.67;100967.50;5024073;28;20045;-70
2021/01/09 00:15:08;;;;;;;14.18;9.35;;;;;;;0.96;90.41;100969.19;5032102;28;20088;-70
2021/01/09 00:17:35;;;;;;;14.13;8.57;;;;;;;0.88;90.59;100971.88;5044114;28;20057;-72
2021/01/09 00:20:12;;;;;;;14.43;8.07;;;;;;;0.88;90.73;100971.03;5037838;28;20046;-70
2021/01/09 00:22:40;;;;;;;13.85;8.43;;;;;;;0.93;90.28;100971.81;5018519;28;20134;-71
2021/01/09 00:25:08;;;;;;;12.50;8.02;;;;;;;0.88;90.21;100966.69;5038127;28;20057;-70
2021/01/09 00:27:35;;;;;;;13.45;8.27;;;;;;;0.97;89.87;100961.38;5029374;22;20415;-65
2021/01/09 00:30:05;;;;;;;10.77;7.32;;;;;;;0.93;89.54;100970.09;5009790;28;20046;-62
2021/01/09 00:32:32;;;;;;;12.00;8.18;;;;;;;0.78;90.00;100967.72;5009895;28;20053;-61
2021/01/09 00:34:59;;;;;;;12.93;8.52;;;;;;;0.81;90.75;100966.78;5004422;28;20502;-60
2021/01/09 00:37:26;;;;;;;14.77;9.15;;;;;;;0.72;90.75;100966.06;5011490;28;20050;-61
2021/01/09 00:39:53;;;;;;;11.23;8.02;;;;;;;0.97;90.33;100973.50;5024311;28;20061;-62
2021/01/09 00:42:20;;;;;;;12.07;8.00;;;;;;;0.77;89.45;100966.00;5043489;28;22145;-60
2021/01/09 00:44:47;;;;;;;12.98;8.40;;;;;;;0.70;90.23;100973.00;5022945;28;20041;-60
2021/01/09 00:47:13;;;;;;;11.05;7.53;;;;;;;0.89;90.17;100975.34;5026868;28;20065;-63
2021/01/09 00:49:40;;;;;;;12.43;6.90;;;;;;;0.97;89.11;100973.50;5020159;28;20066;-61
2021/01/09 00:52:07;;;;;;;9.85;6.75;;;;;;;0.96;89.19;100975.25;5018964;28;20113;-63
2021/01/09 00:54:35;;;;;;;11.63;7.05;;;;;;;1.00;89.13;100982.09;5015218;28;20061;-60
2021/01/09 00:57:02;;;;;;;10.82;6.72;;;;;;;1.02;87.97;100979.47;5020608;28;20075;-63
2021/01/09 00:59:29;;;;;;;11.90;7.45;;;;;;;1.01;88.74;100983.81;5015361;28;20074;-61
2021/01/09 01:01:57;;;;;;;7.80;5.70;;;;;;;0.98;87.86;100981.25;5020231;28;20056;-59
2021/01/09 01:04:24;;;;;;;8.30;6.03;;;;;;;0.93;88.42;100988.22;5020791;28;20732;-62
2021/01/09 01:06:51;;;;;;;11.20;7.55;;;;;;;0.86;88.90;100989.22;5024310;28;20056;-59
2021/01/09 01:09:17;;;;;;;10.50;6.28;;;;;;;1.04;88.01;100998.47;5024620;28;20053;-59
2021/01/09 01:11:44;;;;;;;10.20;6.82;;;;;;;1.12;87.44;100999.19;5024332;28;20065;-61
2021/01/09 01:14:11;;;;;;;10.85;6.25;;;;;;;1.29;87.56;100991.19;5028950;28;20049;-62
2021/01/09 01:16:43;;;;;;;10.27;6.90;;;;;;;1.34;86.82;101001.47;5028005;28;20430;-63
2021/01/09 01:19:11;;;;;;;10.73;6.43;;;;;;;1.02;87.78;101001.06;5022358;28;20308;-60
2021/01/09 01:21:38;;;;;;;10.32;7.15;;;;;;;1.00;88.10;101007.16;5025102;28;20490;-63
2021/01/09 01:24:06;;;;;;;11.15;7.40;;;;;;;1.13;88.47;101005.28;5025697;28;20369;-62
2021/01/09 01:26:33;;;;;;;9.30;6.60;;;;;;;1.02;87.65;101008.84;5030370;28;20124;-60
2021/01/09 01:29:00;;;;;;;9.93;6.20;;;;;;;0.88;88.74;101005.59;5009702;28;20049;-63
2021/01/09 01:31:27;;;;;;;10.25;7.07;;;;;;;0.82;89.86;101017.78;5023956;28;20057;-61
2021/01/09 01:33:54;;;;;;;11.10;7.40;;;;;;;0.97;88.86;101010.66;5022985;28;20076;-63
2021/01/09 01:36:21;;;;;;;9.48;6.45;;;;;;;1.02;88.73;101003.66;5022833;28;20042;-64
2021/01/09 01:38:47;;;;;;;10.15;6.53;;;;;;;1.06;89.04;101014.00;5017399;28;20046;-64
2021/01/09 01:41:14;;;;;;;10.32;6.70;;;;;;;1.09;88.20;101009.63;5023329;28;20042;-63
2021/01/09 01:43:42;;;;;;;9.82;5.88;;;;;;;1.02;88.87;101016.63;5017183;28;20042;-60
2021/01/09 01:46:09;;;;;;;11.50;7.72;;;;;;;1.07;89.20;101008.78;5020340;28;20072;-63
2021/01/09 01:48:37;;;;;;;11.30;7.63;;;;;;;1.16;89.34;101005.19;5016287;28;20145;-58
2021/01/09 01:51:05;;;;;;;12.90;8.32;;;;;;;1.19;89.00;101008.63;5020119;28;20077;-62
2021/01/09 01:53:32;;;;;;;11.52;7.47;;;;;;;1.09;89.51;101009.63;5001662;28;20045;-60
2021/01/09 01:55:59;;;;;;;10.95;7.47;;;;;;;1.00;90.77;101008.03;5023232;28;20136;-61
2021/01/09 01:58:26;;;;;;;13.90;8.07;;;;;;;0.95;91.03;101007.22;5018974;28;20439;-60
2021/01/09 02:00:53;;;;;;;12.43;8.15;;;;;;;0.94;91.27;101005.50;5019544;28;20057;-62
2021/01/09 02:03:21;;;;;;;12.40;8.00;;;;;;;0.87;92.21;101014.25;5019309;28;20176;-62
2021/01/09 02:06:16;;;;;;;13.80;7.68;;;;;;;0.58;93.14;101021.50;5023255;28;20068;-58
2021/01/09 02:08:47;;;;;;;11.25;7.88;;;;;;;0.52;93.48;101014.66;5025147;28;20055;-62
2021/01/09 02:11:46;;;;;;;11.43;7.68;;;;;;;0.69;93.99;101017.06;5024921;28;20056;-61
2021/01/09 02:14:19;;;;;;;12.73;8.10;;;;;;;0.75;93.45;101023.00;5017545;28;20061;-59
2021/01/09 02:16:47;;;;;;;12.30;8.10;;;;;;;0.89;92.71;101014.22;5026949;28;20057;-63
2021/01/09 02:19:14;;;;;;;11.93;8.02;;;;;;;0.82;92.83;101018.63;5009425;28;20495;-61
2021/01/09 02:21:41;;;;;;;11.77;7.80;;;;;;;0.78;92.96;101019.53;5019362;28;20121;-61
2021/01/09 02:24:16;;;;;;;15.18;8.05;;;;;;;0.80;93.37;101015.19;5027387;28;20269;-60
2021/01/09 02:26:44;;;;;;;15.82;9.50;;;;;;;0.76;93.95;101018.69;5032840;28;20253;-63
2021/01/09 02:29:14;;;;;;;15.45;8.48;;;;;;;0.84;93.65;101023.78;5029155;28;20046;-62
2021/01/09 02:31:48;;;;;;;13.18;8.10;;;;;;;1.01;92.92;101016.66;5015484;28;20069;-60
2021/01/09 02:34:16;;;;;;;13.13;8.23;;;;;;;1.08;92.89;101022.59;5016570;28;20053;-59
2021/01/09 02:36:43;;;;;;;11.63;7.57;;;;;;;1.11;92.55;101023.41;5017690;28;20066;-61
2021/01/09 02:39:10;;;;;;;13.25;7.45;;;;;;;1.25;91.74;101021.47;5020038;28;20045;-58
2021/01/09 02:41:37;;;;;;;14.15;9.20;;;;;;;1.05;91.43;101020.91;5018489;28;20115;-59
2021/01/09 02:44:10;;;;;;;13.50;8.77;;;;;;;1.00;92.54;101028.75;5015175;28;20415;-59
2021/01/09 02:46:37;;;;;;;13.85;8.35;;;;;;;0.76;93.02;101040.28;5021364;28;20053;-60
2021/01/09 02:49:04;;;;;;;13.52;8.40;;;;;;;0.82;93.55;101036.78;5021986;28;20050;-59
2021/01/09 02:51:34;;;;;;;12.40;8.18;;;;;;;0.93;92.88;101034.03;5021128;28;20076;-63
2021/01/09 02:54:01;;;;;;;15.65;9.63;;;;;;;0.97;92.75;101036.56;5017746;28;20136;-60
2021/01/09 02:56:28;;;;;;;16.40;10.05;;;;;;;0.99;92.87;101033.94;5022797;28;20053;-60
2021/01/09 02:58:55;;;;;;;13.25;8.68;;;;;;;0.96;92.58;101040.03;5021709;28;20045;-62
2021/01/09 03:01:28;;;;;;;12.93;8.30;;;;;;;1.00;93.20;101040.88;5015103;28;20078;-59
2021/01/09 03:03:56;;;;;;;13.60;8.68;;;;;;;1.15;92.37;101039.81;5020914;28;20053;-63
2021/01/09 03:06:24;;;;;;;14.43;9.80;;;;;;;1.11;92.37;101032.94;5023483;28;20111;-60
2021/01/09 03:08:51;;;;;;;13.10;8.40;;;;;;;1.09;92.85;101032.13;5022721;28;20037;-62
2021/01/09 03:11:18;;;;;;;12.98;8.90;;;;;;;1.09;92.72;101045.06;5018248;28;20068;-60
2021/01/09 03:13:46;;;;;;;12.93;8.40;;;;;;;1.19;92.90;101042.31;5020169;28;20046;-62
2021/01/09 03:16:12;;;;;;;12.77;8.60;;;;;;;1.04;93.14;101052.03;5016710;28;20053;-60
2021/01/09 03:18:40;;;;;;;10.25;7.07;;;;;;;1.17;92.86;101045.81;5021249;28;20557;-62
2021/01/09 03:21:07;;;;;;;12.65;7.82;;;;;;;0.99;92.38;101046.91;5019978;28;20060;-59
2021/01/09 03:23:33;;;;;;;10.77;7.50;;;;;;;1.10;92.39;101055.41;5016552;28;20058;-60
2021/01/09 03:26:00;;;;;;;11.50;7.57;;;;;;;0.97;93.19;101048.69;5021208;28;20073;-62
2021/01/09 03:28:27;;;;;;;12.43;7.88;;;;;;;0.99;92.51;101054.69;5017830;28;20144;-61
2021/01/09 03:30:54;;;;;;;10.35;6.97;;;;;;;0.94;92.52;101062.53;5022802;28;20155;-59
2021/01/09 03:33:21;;;;;;;9.70;6.53;;;;;;;0.96;92.77;101060.78;5022696;28;20090;-60
2021/01/09 03:35:48;;;;;;;10.52;7.18;;;;;;;0.98;92.40;101068.53;5023439;28;20108;-63
2021/01/09 03:38:14;;;;;;;12.48;7.35;;;;;;;1.06;92.19;101066.69;5024178;28;20045;-61
2021/01/09 03:40:41;;;;;;;10.43;7.15;;;;;;;1.05;92.79;101074.50;5024196;28;20429;-60
2021/01/09 03:43:08;;;;;;;9.73;7.50;;;;;;;1.00;91.97;101069.38;5021215;28;20034;-59
2021/01/09 03:45:35;;;;;;;10.35;7.15;;;;;;;0.96;92.35;101073.75;5020190;28;20058;-61
2021/01/09 03:48:02;;;;;;;11.35;7.43;;;;;;;1.02;91.76;101073.66;5016913;28;20064;-60
2021/01/09 03:50:28;;;;;;;11.45;7.63;;;;;;;1.00;91.46;101080.59;5019283;28;20120;-60
2021/01/09 03:52:55;;;;;;;11.10;7.07;;;;;;;0.98;91.40;101068.53;5024252;28;20065;-59
2021/01/09 03:55:22;;;;;;;11.00;7.07;;;;;;;0.99;92.10;101068.53;5019511;28;20050;-58
2021/01/09 03:57:49;;;;;;;11.35;8.18;;;;;;;0.88;91.97;101072.13;5019741;28;20379;-57
2021/01/09 04:00:17;;;;;;;12.13;7.97;;;;;;;1.05;92.27;101071.91;5015974;28;20069;-60
2021/01/09 04:02:44;;;;;;;13.10;7.78;;;;;;;1.11;91.66;101074.44;5019223;28;20037;-61
2021/01/09 04:05:11;;;;;;;12.40;8.00;;;;;;;1.09;91.93;101074.44;5020388;28;20049;-60
2021/01/09 04:07:37;;;;;;;12.02;8.68;;;;;;;1.00;91.71;101077.16;5016792;28;20056;-60
2021/01/09 04:10:05;;;;;;;12.85;8.32;;;;;;;1.06;92.11;101084.00;5023056;28;20053;-62
2021/01/09 04:12:32;;;;;;;11.52;7.95;;;;;;;1.18;91.35;101084.72;5024604;28;21588;-62
2021/01/09 04:14:59;;;;;;;12.65;8.18;;;;;;;1.12;91.08;101086.50;5019235;28;20049;-62
2021/01/09 04:17:26;;;;;;;10.90;7.80;;;;;;;1.10;90.85;101088.28;5001230;28;20414;-61
2021/01/09 04:19:53;;;;;;;12.57;8.95;;;;;;;0.73;92.09;101093.91;5014940;28;20096;-60
2021/01/09 04:22:20;;;;;;;11.77;8.57;;;;;;;0.76;92.36;101091.25;5015732;28;20045;-61
2021/01/09 04:24:47;;;;;;;12.15;8.77;;;;;;;0.84;91.39;101091.16;5017396;28;20072;-61
2021/01/09 04:27:14;;;;;;;11.02;7.50;;;;;;;0.86;91.75;101094.63;5016517;28;20640;-60
2021/01/09 04:29:41;;;;;;;12.32;8.40;;;;;;;0.94;91.76;101093.63;5019838;28;20056;-62
2021/01/09 04:32:07;;;;;;;12.82;7.97;;;;;;;0.95;91.15;101091.91;5025819;28;20052;-62
2021/01/09 04:34:34;;;;;;;10.95;7.72;;;;;;;1.05;90.81;101095.25;5014508;28;20488;-60
2021/01/09 04:37:01;;;;;;;12.93;8.30;;;;;;;1.00;91.35;101095.31;5018051;28;20057;-59
2021/01/09 04:39:28;;;;;;;10.52;7.03;;;;;;;0.93;91.08;101094.50;5019942;28;20529;-61
2021/01/09 04:41:55;;;;;;;11.25;7.47;;;;;;;0.91;91.08;101101.47;5019425;28;20077;-59
2021/01/09 04:44:22;;;;;;;12.00;8.35;;;;;;;0.84;91.16;101096.34;5013139;28;20044;-60
2021/01/09 04:46:50;;;;;;;12.80;8.48;;;;;;;0.84;91.54;101102.38;5010638;28;20057;-60
2021/01/09 04:49:18;;;;;;;11.30;7.50;;;;;;;1.18;90.39;101102.84;5019470;28;20130;-59
2021/01/09 04:51:46;;;;;;;12.10;7.85;;;;;;;1.15;90.25;101102.03;5019861;28;20400;-60
2021/01/09 04:54:18;;;;;;;11.90;8.00;;;;;;;0.98;90.75;101100.50;5015142;28;20068;-58
2021/01/09 04:56:48;;;;;;;11.55;7.43;;;;;;;0.91;91.15;101110.97;5014654;28;20069;-61
2021/01/09 04:59:16;;;;;;;13.45;7.90;;;;;;;0.93;91.68;101111.81;5017529;28;20050;-60
2021/01/09 05:01:46;;;;;;;11.13;6.85;;;;;;;0.76;91.56;101107.66;5019428;28;20056;-60
2021/01/09 05:04:14;;;;;;;10.82;7.63;;;;;;;0.70;91.84;101109.47;5019598;28;20489;-61
2021/01/09 05:06:41;;;;;;;11.13;7.35;;;;;;;0.96;92.09;101115.22;5018667;28;20422;-60
2021/01/09 05:09:10;;;;;;;11.25;7.32;;;;;;;0.92;91.92;101110.09;5022105;28;20053;-60
2021/01/09 05:11:40;;;;;;;11.30;7.47;;;;;;;0.96;91.40;101117.81;5023039;28;20375;-61
2021/01/09 05:14:07;;;;;;;12.15;8.32;;;;;;;1.06;91.33;101123.75;5030047;28;20549;-61
2021/01/09 05:16:35;;;;;;;10.75;7.35;;;;;;;1.13;90.95;101125.41;5038597;28;20128;-59
2021/01/09 05:19:03;;;;;;;11.85;6.38;;;;;;;0.79;90.13;101126.66;5029296;28;20136;-60
2021/01/09 05:21:33;;;;;;;13.48;6.90;;;;;;;0.60;90.04;101124.25;5019464;28;20064;-60
2021/01/09 05:24:04;;;;;;;14.60;8.80;;;;;;;0.87;91.01;101130.88;5017918;28;20045;-61
2021/01/09 05:26:31;;;;;;;14.35;8.65;;;;;;;0.85;91.16;101135.19;5035741;28;20455;-59
2021/01/09 05:29:02;;;;;;;14.45;8.80;;;;;;;1.05;90.62;101135.00;5019175;28;20402;-61
2021/01/09 05:31:36;;;;;;;12.48;8.65;;;;;;;1.04;90.63;101135.00;5019477;28;20068;-60
2021/01/09 05:34:04;;;;;;;12.20;8.00;;;;;;;1.12;90.01;101141.81;5016759;28;20149;-61
2021/01/09 05:36:31;;;;;;;14.55;8.82;;;;;;;1.02;89.98;101138.47;5000154;28;20057;-60
2021/01/09 05:38:58;;;;;;;14.38;8.80;;;;;;;0.90;91.09;101148.13;5019364;28;20291;-60
2021/01/09 05:41:25;;;;;;;12.48;8.20;;;;;;;0.75;91.17;101139.63;5015684;28;20171;-57
2021/01/09 05:44:02;;;;;;;13.27;8.25;;;;;;;0.74;91.57;101145.69;5023222;28;20532;-60
2021/01/09 05:46:31;;;;;;;11.48;7.32;;;;;;;0.71;91.70;101147.44;5015249;28;20734;-60
2021/01/09 05:48:58;;;;;;;11.60;7.30;;;;;;;0.72;91.62;101150.06;5024513;28;20069;-60
2021/01/09 05:51:34;;;;;;;13.20;7.80;;;;;;;0.63;92.15;101155.31;5028702;28;20310;-59
2021/01/09 05:54:01;;;;;;;11.50;7.15;;;;;;;0.84;92.17;101155.97;5017812;28;20058;-57
2021/01/09 05:56:29;;;;;;;10.57;7.00;;;;;;;0.85;91.97;101158.53;5023941;28;20049;-59
2021/01/09 05:58:56;;;;;;;12.15;7.63;;;;;;;0.86;91.88;101156.81;5023295;28;20557;-62
2021/01/09 06:01:27;;;;;;;11.30;6.90;;;;;;;0.85;91.70;101155.09;5019240;28;20505;-61
2021/01/09 06:04:05;;;;;;;11.07;7.18;;;;;;;0.67;92.04;101156.13;5020279;28;20097;-60
2021/01/09 06:06:32;;;;;;;11.40;7.15;;;;;;;0.66;92.54;101155.28;5016754;28;20071;-60
2021/01/09 06:09:05;;;;;;;11.77;7.65;;;;;;;0.70;92.80;101158.69;5020481;28;20057;-61
2021/01/09 06:11:40;;;;;;;11.93;7.25;;;;;;;0.68;92.98;101163.06;5012636;28;20103;-60
2021/01/09 06:14:12;;;;;;;11.45;7.30;;;;;;;0.84;92.72;101172.38;5018209;28;20046;-60
2021/01/09 06:16:40;;;;;;;11.85;7.05;;;;;;;0.80;91.66;101172.41;5016135;28;20053;-59
2021/01/09 06:19:08;;;;;;;9.73;5.68;;;;;;;0.91;91.48;101174.03;5019136;28;20050;-58
2021/01/09 06:21:35;;;;;;;10.13;6.03;;;;;;;1.04;90.72;101174.78;5025328;28;20057;-60
2021/01/09 06:24:04;;;;;;;11.75;7.10;;;;;;;1.07;90.48;101179.03;5023551;28;20116;-62
2021/01/09 06:26:31;;;;;;;8.82;5.75;;;;;;;1.13;90.41;101173.81;5031269;28;20064;-62
2021/01/09 06:29:00;;;;;;;10.88;7.10;;;;;;;0.97;90.56;101186.94;5007741;22;20047;-61
2021/01/09 06:31:28;;;;;;;10.85;6.10;;;;;;;1.00;90.07;101188.63;4984896;28;20506;-62
2021/01/09 06:33:57;;;;;;;11.75;6.13;;;;;;;1.11;90.05;101191.97;4980482;28;20050;-61
2021/01/09 06:36:25;;;;;;;10.77;6.55;;;;;;;1.01;89.80;101188.63;4988218;28;20057;-62
2021/01/09 06:38:53;;;;;;;11.30;6.45;;;;;;;0.78;90.02;101193.19;4977737;28;20061;-61
2021/01/09 06:41:22;;;;;;;9.48;5.60;;;;;;;0.78;90.22;101190.59;4982075;28;20516;-62
2021/01/09 06:43:50;;;;;;;8.57;5.40;;;;;;;0.76;90.33;101198.34;4993339;28;20045;-61
2021/01/09 06:46:31;;;;;;;12.65;6.10;;;;;;;0.79;90.48;101200.06;4990974;28;20148;-61
2021/01/09 06:48:59;;;;;;;11.93;6.80;;;;;;;0.76;90.22;101200.09;4998489;28;20057;-60
2021/01/09 06:51:34;;;;;;;12.25;7.18;;;;;;;0.64;90.44;101202.81;4988155;28;20227;-61
2021/01/09 06:54:23;;;;;;;11.50;6.95;;;;;;;0.62;90.08;101207.13;4986570;28;20054;-62
2021/01/09 06:57:04;;;;;;;12.07;6.80;;;;;;;0.61;90.13;101208.00;4981154;28;20038;-61
2021/01/09 06:59:35;;;;;;;13.02;6.85;;;;;;;0.61;89.58;101216.66;4986009;28;20050;-60
2021/01/09 07:02:24;;;;;;;13.38;7.13;;;;;;;0.70;89.76;101210.53;4984762;28;20054;-62
2021/01/09 07:04:51;;;;;;;12.90;8.07;;;;;;;0.74;89.66;101214.81;4989322;28;20644;-61
2021/01/09 07:07:52;;;;;;;10.30;6.68;;;;;;;0.75;88.52;101221.69;4986181;28;20134;-61
2021/01/09 07:10:22;;;;;;;10.90;6.20;;;;;;;0.70;88.88;101223.47;4982458;28;20059;-61
2021/01/09 07:12:55;;;;;;;12.48;7.53;;;;;;;0.59;89.57;101218.41;4972778;28;20053;-60
2021/01/09 07:15:23;;;;;;;11.35;7.13;;;;;;;0.67;89.85;101228.69;4989540;28;20377;-65
2021/01/09 07:17:52;;;;;;;14.73;8.05;;;;;;;0.55;90.30;101232.25;4967580;28;20133;-63
2021/01/09 07:20:20;;;;;;;14.65;8.35;;;;;;;0.73;90.40;101226.91;4975345;28;20054;-63
2021/01/09 07:22:50;;;;;;;14.77;7.70;;;;;;;0.96;89.51;101234.47;4975272;28;20179;-61
2021/01/09 07:25:29;;;;;;;13.35;6.35;;;;;;;0.82;87.99;101232.88;4991105;28;20054;-60
2021/01/09 07:27:58;;;;;;;13.15;6.50;;;;;;;0.74;88.11;101238.13;4977590;28;20046;-61
2021/01/09 07:30:27;;;;;;;18.13;6.35;;;;;;;0.71;88.77;101232.97;4991663;28;20535;-61
2021/01/09 07:32:55;;;;;;;9.40;5.82;;;;;;;0.75;88.93;101239.84;4986365;28;20057;-61
2021/01/09 07:35:25;;;;;;;10.25;6.18;;;;;;;0.73;88.80;101239.88;4994051;28;20042;-62
2021/01/09 07:38:04;;;;;;;11.00;6.55;;;;;;;0.48;88.67;101246.97;4988779;28;20081;-63
2021/01/09 07:40:33;;;;;;;9.07;6.07;;;;;;;0.83;88.38;101247.56;4985086;28;20419;-60
2021/01/09 07:43:01;;;;;;;8.02;5.43;;;;;;;0.98;87.59;101255.19;4976566;28;20054;-58
2021/01/09 07:45:32;;;;;;;9.85;5.13;;;;;;;1.07;87.53;101254.25;4986539;28;20054;-61
2021/01/09 07:48:00;;;;;;;9.80;5.40;;;;;;;1.05;87.08;101256.00;4987064;28;20058;-62
2021/01/09 07:50:41;;;;;;;7.60;5.22;;;;;;;0.90;87.05;101260.47;4980212;28;20063;-63
2021/01/09 07:53:08;;;;;;;8.50;5.88;;;;;;;1.14;86.76;101253.31;4981970;28;20073;-61
2021/01/09 07:55:45;;;;;;;8.32;4.93;;;;;;;1.18;86.27;101258.47;4989071;28;20437;-61
2021/01/09 07:58:12;;;;;;;7.35;4.60;;;;;;;1.13;86.28;101264.56;4984589;28;20065;-61
2021/01/09 08:00:41;;;;;;;6.22;4.28;;;;;;;1.33;85.36;101267.81;4982389;28;20077;-61
2021/01/09 08:03:11;;;;;;;6.88;4.68;;;;;;;1.19;85.33;101273.13;4991963;28;20710;-61
2021/01/09 08:05:38;;;;;;;7.45;4.95;;;;;;;0.96;85.77;101272.50;5001312;28;20046;-61
2021/01/09 08:08:05;;;;;;;8.32;5.10;;;;;;;1.11;86.75;101280.13;4982849;28;20425;-60
2021/01/09 08:10:33;;;;;;;9.40;6.03;;;;;;;1.09;87.19;101281.03;4994024;28;20047;-61
2021/01/09 08:13:07;;;;;;;12.23;6.85;;;;;;;1.05;86.99;101284.53;4980768;28;20047;-62
2021/01/09 08:15:35;;;;;;;13.27;8.18;;;;;;;0.85;87.51;101282.94;4968993;28;20051;-64
2021/01/09 08:18:04;;;;;;;15.20;7.03;;;;;;;0.94;88.40;101282.88;4979643;28;20046;-64
2021/01/09 08:20:32;;;;;;;11.15;6.60;;;;;;;1.21;87.65;101288.66;4974944;28;20078;-62
2021/01/09 08:23:01;;;;;;;13.70;7.95;;;;;;;1.26;87.40;101287.78;4988987;28;20075;-59
2021/01/09 08:25:30;;;;;;;14.88;8.32;;;;;;;1.12;87.36;101289.63;4985260;28;20053;-62
2021/01/09 08:27:59;;;;;;;13.00;7.20;;;;;;;1.09;88.04;101294.84;4971551;28;20060;-61
2021/01/09 08:30:27;;;;;;;11.50;7.50;;;;;;;1.27;87.88;101288.63;4987054;28;20094;-62
2021/01/09 08:33:11;;;;;;;10.98;7.13;;;;;;;1.42;86.90;101295.38;4988047;28;20050;-62
2021/01/09 08:35:46;;;;;;;13.13;8.13;;;;;;;1.23;87.57;101297.31;4984953;28;20503;-61
2021/01/09 08:38:15;;;;;;;11.15;7.00;;;;;;;1.09;87.20;101300.03;4983273;28;20058;-62
2021/01/09 08:40:45;;;;;;;12.27;7.30;;;;;;;1.13;87.77;101296.53;4985414;28;20119;-62
2021/01/09 08:43:13;;;;;;;13.85;8.05;;;;;;;1.27;87.14;101301.59;4982828;28;20059;-61
2021/01/09 08:45:50;;;;;;;18.08;7.32;;;;;;;1.28;87.27;101300.72;4987776;28;20051;-63
2021/01/09 08:48:21;;;;;;;14.10;6.88;;;;;;;1.49;87.05;101302.25;4984040;28;20367;-60
2021/01/09 08:51:05;;;;;;;11.52;6.25;;;;;;;1.48;86.23;101303.09;4990266;28;20047;-62
2021/01/09 08:53:47;;;;;;;15.80;7.30;;;;;;;1.44;86.37;101304.88;4988714;28;20145;-61
2021/01/09 08:56:16;;;;;;;13.20;7.45;;;;;;;1.40;86.31;101318.75;4987985;28;20054;-62
2021/01/09 08:58:43;;;;;;;12.00;7.40;;;;;;;1.49;86.66;101318.66;4990137;28;20054;-61
2021/01/09 09:01:14;;;;;;;11.68;7.07;;;;;;;1.21;87.26;101317.19;4971645;28;20054;-61
2021/01/09 09:03:47;;;;;;;11.15;7.15;;;;;;;0.95;88.35;101318.31;4982164;28;20072;-61
2021/01/09 09:06:16;;;;;;;14.02;8.15;;;;;;;1.01;88.70;101326.03;4988260;28;20528;-60
2021/01/09 09:08:43;;;;;;;14.80;8.23;;;;;;;1.00;89.21;101326.03;4980889;28;20059;-61
2021/01/09 09:11:10;;;;;;;12.48;7.75;;;;;;;1.03;89.75;101331.19;4986346;28;20070;-63
2021/01/09 09:13:37;;;;;;;14.65;8.50;;;;;;;1.08;89.96;101329.44;4986356;28;20059;-62
2021/01/09 09:16:21;;;;;;;17.63;9.02;;;;;;;1.10;90.00;101332.88;4964828;28;20124;-61
2021/01/09 09:18:48;;;;;;;15.32;9.25;;;;;;;1.23;89.94;101331.88;4986206;28;20491;-62
2021/01/09 09:21:18;;;;;;;16.13;9.23;;;;;;;1.32;89.90;101332.69;4976551;28;20057;-60
2021/01/09 09:23:58;;;;;;;15.00;9.18;;;;;;;1.41;89.93;101330.00;4985229;28;20408;-62
2021/01/09 09:26:31;;;;;;;15.05;9.52;;;;;;;1.30;89.57;101332.69;4979331;28;20054;-62
2021/01/09 09:28:59;;;;;;;17.55;10.43;;;;;;;1.31;89.47;101331.81;4986874;28;20059;-62
2021/01/09 09:31:40;;;;;;;22.30;9.75;;;;;;;1.51;89.40;101335.06;4984429;28;20097;-63
2021/01/09 09:34:11;;;;;;;20.17;9.80;;;;;;;1.20;90.47;101334.50;4997593;28;20061;-62
2021/01/09 09:36:50;;;;;;;16.42;9.73;;;;;;;1.27;90.89;101341.38;4984631;28;20112;-62
2021/01/09 09:39:18;;;;;;;25.17;11.50;;;;;;;1.11;91.59;101331.13;4989709;28;20047;-62
2021/01/09 09:41:57;;;;;;;18.85;11.18;;;;;;;1.07;92.54;101339.81;4981490;28;20058;-62
2021/01/09 09:44:44;;;;;;;23.00;10.60;;;;;;;1.11;92.56;101334.56;4987317;28;20053;-62
2021/01/09 09:47:23;;;;;;;21.15;11.40;;;;;;;1.31;92.82;101326.63;4981747;28;20144;-62
2021/01/09 09:50:08;;;;;;;21.30;10.85;;;;;;;1.36;92.24;101326.59;4987058;28;20062;-60
2021/01/09 09:52:34;;;;;;;23.13;11.02;;;;;;;1.52;91.90;101334.19;4983984;28;20146;-61
2021/01/09 09:55:06;;;;;;;22.25;11.45;;;;;;;1.48;92.21;101327.31;4982945;28;20062;-61
2021/01/09 09:57:33;;;;;;;23.20;11.57;;;;;;;1.38;92.25;101330.88;4988082;28;20054;-64
2021/01/09 10:00:08;;;;;;;21.08;11.02;;;;;;;1.32;93.14;101336.13;4985585;28;20184;-63
2021/01/09 10:02:35;;;;;;;21.65;9.82;;;;;;;1.40;93.22;101330.88;4981113;28;20130;-62
2021/01/09 10:05:12;;;;;;;23.70;10.73;;;;;;;1.50;92.93;101333.34;4988748;28;20050;-62
2021/01/09 10:07:39;;;;;;;21.80;10.60;;;;;;;1.43;92.98;101333.41;4992984;28;20060;-62
2021/01/09 10:10:18;;;;;;;23.88;10.65;;;;;;;1.59;92.66;101329.81;4977147;28;20557;-62
2021/01/09 10:12:55;;;;;;;19.35;10.05;;;;;;;1.73;91.31;101338.28;4986476;28;20062;-61
2021/01/09 10:15:22;;;;;;;19.55;9.80;;;;;;;1.59;91.88;101337.59;4981872;28;20138;-64
2021/01/09 10:17:58;;;;;;;22.65;11.07;;;;;;;1.39;93.34;101342.09;4992281;28;20072;-60
2021/01/09 10:20:26;;;;;;;25.25;11.57;;;;;;;1.08;94.17;101337.22;4985031;28;20046;-60
2021/01/09 10:22:53;;;;;;;24.50;12.60;;;;;;;0.94;95.21;101342.50;4984895;28;20067;-61
2021/01/09 10:25:20;;;;;;;30.88;12.02;;;;;;;0.89;95.90;101346.84;4983074;28;20051;-61
2021/01/09 10:27:46;;;;;;;33.45;11.18;;;;;;;0.98;95.49;101349.38;4982821;28;20053;-63
2021/01/09 10:30:13;;;;;;;28.05;9.65;;;;;;;1.14;94.97;101350.13;4977902;28;20069;-62
2021/01/09 10:32:40;;;;;;;22.85;10.93;;;;;;;1.25;94.74;101345.69;4976239;28;20051;-62
2021/01/09 10:35:07;;;;;;;20.58;9.88;;;;;;;1.48;93.57;101342.88;4981509;28;20051;-62
2021/01/09 10:37:34;;;;;;;20.83;11.75;;;;;;;1.45;93.41;101344.66;4987987;28;20050;-60
2021/01/09 10:40:01;;;;;;;25.50;11.52;;;;;;;1.44;94.20;101350.69;4981257;28;20434;-62
2021/01/09 10:42:30;;;;;;;24.00;11.68;;;;;;;1.31;94.83;101346.53;4982293;28;20060;-63
2021/01/09 10:44:57;;;;;;;50.55;12.63;;;;;;;1.37;94.92;101343.88;4989391;28;20078;-61
2021/01/09 10:47:24;;;;;;;27.67;12.65;;;;;;;1.42;95.02;101347.28;4982220;28;20152;-62
2021/01/09 10:49:55;;;;;;;27.08;11.20;;;;;;;1.55;94.38;101346.28;4984391;28;20050;-61
2021/01/09 10:52:22;;;;;;;27.65;12.02;;;;;;;1.21;95.87;101350.91;4981360;28;20087;-64
2021/01/09 10:54:49;;;;;;;30.17;12.77;;;;;;;1.13;97.38;101345.81;4982347;28;20045;-63
2021/01/09 10:57:16;;;;;;;39.72;14.73;;;;;;;1.59;98.04;101347.97;4992851;28;20049;-59
2021/01/09 10:59:42;;;;;;;26.08;12.18;;;;;;;1.90;95.64;101350.22;4989342;28;20056;-61
2021/01/09 11:02:09;;;;;;;33.85;13.30;;;;;;;2.06;94.60;101356.09;4984872;28;20054;-62
2021/01/09 11:04:36;;;;;;;37.17;13.63;;;;;;;2.44;93.59;101356.47;4966685;28;20613;-59
2021/01/09 11:07:03;;;;;;;28.67;13.43;;;;;;;2.35;92.62;101351.41;4984261;28;20407;-59
2021/01/09 11:09:30;;;;;;;28.40;13.63;;;;;;;2.13;93.09;101350.81;4987583;28;20054;-58
2021/01/09 11:11:56;;;;;;;32.90;14.68;;;;;;;2.19;92.82;101344.66;4986535;28;20070;-61
2021/01/09 11:14:24;;;;;;;35.05;13.43;;;;;;;2.07;92.71;101348.28;4983230;28;20050;-63
2021/01/09 11:16:57;;;;;;;31.13;14.23;;;;;;;1.91;93.70;101347.63;4987767;28;20058;-62
2021/01/09 11:19:24;;;;;;;32.50;16.15;;;;;;;2.05;93.65;101349.19;4981184;28;20161;-63
2021/01/09 11:21:51;;;;;;;26.33;13.00;;;;;;;2.05;93.29;101351.78;4985912;28;20065;-61
2021/01/09 11:24:17;;;;;;;33.60;15.00;;;;;;;2.07;93.06;101340.47;4988473;28;20061;-59
2021/01/09 11:26:44;;;;;;;32.10;13.95;;;;;;;1.92;93.13;101351.91;4984820;28;20129;-63
2021/01/09 11:29:11;;;;;;;26.65;12.00;;;;;;;1.74;93.89;101349.53;4983836;28;20055;-61
2021/01/09 11:31:37;;;;;;;36.53;12.43;;;;;;;1.52;95.16;101354.94;4985320;28;20050;-62
2021/01/09 11:34:04;;;;;;;28.15;13.50;;;;;;;1.55;95.22;101355.81;4982985;28;20050;-61